Resolute, Canada
Current Conditions -  °F | °C
As of 5:00 AM on Friday 28 Nov 2014 (Local Time) from CYRB Reporting Station
Light Snow Light Snow  
Wind Chill: -43°   Ceiling: Unl
Heat Index: -17°   Visibility: 15mi
Dew Point: -22°   Wind: 18mph
Humidity: 76%   Direction: 80°E
Pressure: 29.59"   Gusts: NA
Location:  74.69°N, 94.91°W
Report Text: CYRB 281100Z 08016KT 15SM -SN FEW020 FEW100 M27/M30 A2959 RMK SC1AC2 SC TR SLP030
Loading
Personal Weather Stations






























Interactive Weather Map New forecast layout! Learn more

10-Day Weather Forecast

Advertisements
Track Severe Weather on mobile